Elberta, Utah
Current Conditions -  °F | °C
As of 6:47 PM on Wednesday 26 Nov 2014 (Local Time) from KPVU Reporting Station
Scattered Clouds Scattered Clouds  
Wind Chill: 36°   Ceiling: Unl
Heat Index: 36°   Visibility: 15mi
Dew Point: 27°   Wind: 0mph
Humidity: 70%   Direction: NA
Pressure: 30.4"   Gusts: NA
Location:  39.95°N, 111.96°W
Report Text: KPVU 270147Z 00000KT 15SM SCT180 02/M03 A3040
Loading
Personal Weather Stations






























Interactive Weather Map New forecast layout! Learn more

10-Day Weather Forecast

Advertisements
Track Severe Weather on mobile